createdAt,value
2022-08-04T00:00:06.789Z,21.41
2022-08-04T00:02:53.873Z,21.33
2022-08-04T00:05:37.180Z,21.31
2022-08-04T00:08:24.096Z,21.30
2022-08-04T00:11:00.718Z,21.30
2022-08-04T00:14:02.346Z,21.31
2022-08-04T00:16:39.579Z,21.28
2022-08-04T00:19:18.649Z,21.27
2022-08-04T00:21:57.998Z,21.24
2022-08-04T00:24:32.706Z,21.32
2022-08-04T00:27:07.706Z,21.27
2022-08-04T00:29:41.187Z,21.15
2022-08-04T00:32:33.894Z,21.15
2022-08-04T00:35:11.047Z,21.11
2022-08-04T00:37:46.730Z,21.02
2022-08-04T00:40:29.468Z,20.94
2022-08-04T00:43:14.603Z,20.95
2022-08-04T00:46:28.670Z,20.93
2022-08-04T00:49:33.872Z,20.89
2022-08-04T00:52:31.715Z,20.89
2022-08-04T00:55:29.268Z,20.77
2022-08-04T00:58:30.818Z,20.73
2022-08-04T01:01:07.740Z,20.75
2022-08-04T01:03:56.067Z,20.74
2022-08-04T01:06:50.964Z,20.69
2022-08-04T01:09:46.149Z,20.62
2022-08-04T01:12:45.404Z,20.61
2022-08-04T01:15:27.131Z,20.57
2022-08-04T01:18:06.487Z,20.54
2022-08-04T01:20:48.984Z,20.55
2022-08-04T01:24:13.240Z,20.47
2022-08-04T01:26:58.371Z,20.40
2022-08-04T01:29:46.681Z,20.39
2022-08-04T01:32:32.204Z,20.34
2022-08-04T01:35:15.503Z,20.31
2022-08-04T01:38:03.080Z,20.34
2022-08-04T01:40:56.044Z,20.32
2022-08-04T01:43:31.084Z,20.31
2022-08-04T01:46:07.038Z,20.30
2022-08-04T01:48:42.035Z,20.25
2022-08-04T01:51:15.514Z,20.24
2022-08-04T01:53:48.607Z,20.27
2022-08-04T01:56:23.754Z,20.19
2022-08-04T01:58:59.241Z,20.22
2022-08-04T02:01:37.946Z,20.18
2022-08-04T02:04:21.602Z,20.15
2022-08-04T02:07:11.424Z,20.18
2022-08-04T02:10:03.036Z,20.22
2022-08-04T02:12:54.520Z,20.22
2022-08-04T02:15:39.014Z,20.17
2022-08-04T02:18:23.180Z,20.11
2022-08-04T02:21:00.510Z,20.10
2022-08-04T02:23:37.958Z,20.10
2022-08-04T02:26:22.263Z,19.97
2022-08-04T02:29:05.333Z,19.91
2022-08-04T02:31:45.422Z,19.87
2022-08-04T02:34:27.180Z,19.79
2022-08-04T02:37:01.773Z,19.74
2022-08-04T02:39:48.268Z,19.75
2022-08-04T02:42:23.205Z,19.81
2022-08-04T02:45:00.468Z,19.74
2022-08-04T02:48:23.666Z,19.74
2022-08-04T02:50:31.011Z,19.75
2022-08-04T02:53:09.974Z,19.74
2022-08-04T02:55:50.402Z,19.73
2022-08-04T02:58:29.076Z,19.73
2022-08-04T03:01:02.480Z,19.74
2022-08-04T03:03:41.867Z,19.82
2022-08-04T03:07:33.543Z,19.90
2022-08-04T03:10:54.836Z,19.84
2022-08-04T03:14:10.618Z,19.78
2022-08-04T03:20:46.543Z,19.69
2022-08-04T03:24:06.367Z,19.57
2022-08-04T03:27:01.853Z,19.49
2022-08-04T03:30:08.763Z,19.45
2022-08-04T03:33:10.307Z,19.40
2022-08-04T03:36:14.279Z,19.31
2022-08-04T03:39:18.615Z,19.22
2022-08-04T03:42:40.722Z,19.21
2022-08-04T03:45:46.679Z,19.12
2022-08-04T03:48:59.544Z,19.07
2022-08-04T03:52:01.572Z,19.08
2022-08-04T03:55:26.855Z,19.12
2022-08-04T03:58:46.261Z,19.08
2022-08-04T04:02:01.925Z,19.10
2022-08-04T04:05:09.170Z,19.05
2022-08-04T04:08:19.098Z,18.98
2022-08-04T04:11:57.403Z,18.95
2022-08-04T04:14:50.728Z,18.98
2022-08-04T04:17:50.854Z,18.95
2022-08-04T04:20:55.431Z,18.87
2022-08-04T04:24:03.857Z,18.77
2022-08-04T04:26:57.433Z,18.83
2022-08-04T04:29:54.715Z,18.84
2022-08-04T04:32:42.748Z,18.84
2022-08-04T04:35:35.741Z,18.87
2022-08-04T04:38:43.361Z,18.87
2022-08-04T04:41:38.043Z,18.95
2022-08-04T04:44:48.419Z,18.97
2022-08-04T04:47:43.363Z,18.96
2022-08-04T04:50:38.209Z,18.96
2022-08-04T04:53:24.519Z,19.02
2022-08-04T04:56:07.462Z,19.09
2022-08-04T04:58:42.098Z,19.15
2022-08-04T05:01:51.622Z,19.22
2022-08-04T05:05:16.287Z,19.27
2022-08-04T05:08:43.820Z,19.44
2022-08-04T05:11:56.855Z,19.58
2022-08-04T05:14:41.605Z,19.73
2022-08-04T05:17:25.237Z,19.91
2022-08-04T05:20:06.489Z,20.04
2022-08-04T05:22:47.515Z,20.28
2022-08-04T05:25:26.903Z,20.80
2022-08-04T05:28:07.346Z,21.62
2022-08-04T05:30:48.644Z,22.40
2022-08-04T05:33:30.530Z,23.20
2022-08-04T05:36:20.461Z,23.88
2022-08-04T05:39:03.293Z,24.58
2022-08-04T05:41:45.731Z,24.72
2022-08-04T05:44:24.004Z,25.49
2022-08-04T05:46:59.610Z,25.91
2022-08-04T05:49:35.601Z,26.23
2022-08-04T05:52:11.622Z,26.71
2022-08-04T05:54:45.945Z,27.04
2022-08-04T05:57:20.894Z,27.25
2022-08-04T05:59:56.800Z,27.36
2022-08-04T06:02:31.603Z,27.72
2022-08-04T06:05:08.414Z,28.01
2022-08-04T06:08:12.542Z,28.21
2022-08-04T06:10:39.272Z,28.64
2022-08-04T06:13:47.463Z,28.85
2022-08-04T06:16:28.580Z,29.07
2022-08-04T06:19:59.527Z,29.35
2022-08-04T06:22:05.683Z,29.51
2022-08-04T06:24:42.526Z,29.43
2022-08-04T06:27:16.913Z,29.78
2022-08-04T06:29:51.950Z,30.09
2022-08-04T06:32:34.708Z,30.22
2022-08-04T06:35:12.255Z,30.69
2022-08-04T06:37:49.178Z,30.80
2022-08-04T06:40:31.258Z,30.60
2022-08-04T06:43:08.811Z,30.93
2022-08-04T06:45:43.979Z,31.08
2022-08-04T06:48:19.464Z,31.59
2022-08-04T06:51:26.385Z,31.46
2022-08-04T06:53:49.046Z,32.08
2022-08-04T06:56:24.134Z,32.36
2022-08-04T06:58:59.184Z,32.44
2022-08-04T07:01:33.888Z,33.02
2022-08-04T07:04:07.511Z,33.31
2022-08-04T07:06:40.977Z,33.35
2022-08-04T07:09:15.884Z,33.27
2022-08-04T07:11:51.189Z,33.14
2022-08-04T07:14:27.097Z,33.69
2022-08-04T07:17:01.166Z,34.27
2022-08-04T07:19:34.924Z,34.74
2022-08-04T07:22:24.346Z,34.98
2022-08-04T07:25:01.338Z,34.82
2022-08-04T07:27:48.421Z,34.87
2022-08-04T07:30:24.874Z,35.24
2022-08-04T07:32:58.603Z,35.68
2022-08-04T07:36:10.029Z,35.73
2022-08-04T07:38:27.312Z,36.16
2022-08-04T07:41:03.911Z,36.82
2022-08-04T07:43:38.988Z,36.95
2022-08-04T07:46:12.664Z,37.38
2022-08-04T07:48:46.479Z,37.32
2022-08-04T07:51:20.068Z,37.39
2022-08-04T07:53:56.178Z,37.51
2022-08-04T07:56:32.387Z,37.71
2022-08-04T07:59:06.703Z,37.99
2022-08-04T08:01:41.424Z,38.33
2022-08-04T08:04:16.004Z,38.28
2022-08-04T08:06:49.376Z,38.06
2022-08-04T08:09:22.846Z,37.95
2022-08-04T08:12:36.284Z,37.77
2022-08-04T08:14:51.230Z,37.84
2022-08-04T08:17:25.709Z,37.77
2022-08-04T08:19:58.948Z,37.32
2022-08-04T08:22:33.198Z,37.38
2022-08-04T08:25:07.598Z,37.15
2022-08-04T08:27:43.862Z,37.38
2022-08-04T08:30:31.485Z,37.31
2022-08-04T08:33:10.523Z,37.14
2022-08-04T08:35:54.904Z,37.10
2022-08-04T08:38:44.942Z,36.99
2022-08-04T08:41:53.192Z,37.30
2022-08-04T08:45:17.823Z,37.42
2022-08-04T08:48:34.951Z,37.61
2022-08-04T08:51:34.318Z,37.65
2022-08-04T08:54:34.946Z,37.73
2022-08-04T08:57:59.413Z,37.45
2022-08-04T09:00:48.979Z,37.72
2022-08-04T09:04:31.615Z,37.64
2022-08-04T09:07:27.794Z,37.82
2022-08-04T09:10:12.997Z,37.87
2022-08-04T09:12:59.102Z,37.74
2022-08-04T09:15:41.275Z,37.88
2022-08-04T09:18:23.467Z,38.07
2022-08-04T09:21:08.013Z,37.92
2022-08-04T09:23:50.721Z,37.79
2022-08-04T09:26:35.865Z,37.64
2022-08-04T09:29:15.729Z,37.55
2022-08-04T09:32:07.339Z,37.88
2022-08-04T09:35:07.588Z,37.94
2022-08-04T09:37:51.331Z,37.79
2022-08-04T09:40:35.657Z,37.95
2022-08-04T09:43:59.423Z,38.29
2022-08-04T09:46:36.245Z,38.30
2022-08-04T09:49:17.520Z,38.31
2022-08-04T09:52:12.997Z,38.15
2022-08-04T09:55:03.870Z,37.76
2022-08-04T09:57:53.450Z,37.94
2022-08-04T10:00:40.706Z,37.91
2022-08-04T10:03:20.232Z,38.04
2022-08-04T10:06:21.165Z,37.93
2022-08-04T10:09:07.239Z,37.67
2022-08-04T10:12:10.308Z,37.71
2022-08-04T10:14:54.015Z,37.32
2022-08-04T10:18:05.482Z,37.49
2022-08-04T10:20:59.975Z,37.47
2022-08-04T10:23:55.111Z,37.63
2022-08-04T10:26:38.242Z,37.82
2022-08-04T10:29:19.046Z,37.66
2022-08-04T10:32:02.092Z,37.71
2022-08-04T10:34:44.548Z,37.74
2022-08-04T10:38:00.335Z,37.42
2022-08-04T10:40:43.142Z,37.55
2022-08-04T10:43:29.239Z,37.61
2022-08-04T10:46:09.509Z,37.77
2022-08-04T10:48:48.896Z,37.81
2022-08-04T10:51:30.371Z,37.82
2022-08-04T10:54:30.960Z,37.59
2022-08-04T10:57:12.106Z,37.45
2022-08-04T11:00:00.603Z,37.70
2022-08-04T11:02:46.497Z,37.82
2022-08-04T11:05:30.567Z,37.78
2022-08-04T11:08:14.365Z,37.88
2022-08-04T11:10:58.667Z,37.63
2022-08-04T11:13:48.591Z,37.42
2022-08-04T11:16:28.171Z,37.39
2022-08-04T11:19:15.309Z,37.33
2022-08-04T11:21:56.683Z,37.24
2022-08-04T11:24:38.475Z,37.25
2022-08-04T11:27:17.550Z,37.16
2022-08-04T11:30:02.864Z,37.10
2022-08-04T11:32:45.229Z,37.39
2022-08-04T11:35:29.104Z,37.17
2022-08-04T11:38:12.855Z,37.27
2022-08-04T11:41:02.130Z,37.30
2022-08-04T11:44:02.766Z,37.26
2022-08-04T11:46:43.658Z,37.22
2022-08-04T11:49:27.721Z,37.13
2022-08-04T11:52:05.118Z,37.22
2022-08-04T11:54:39.432Z,37.39
2022-08-04T11:57:12.756Z,37.16
2022-08-04T11:59:49.172Z,37.05
2022-08-04T12:02:49.955Z,37.17
2022-08-04T12:05:36.919Z,37.15
2022-08-04T12:08:34.576Z,36.93
2022-08-04T12:11:25.245Z,36.84
2022-08-04T12:14:14.744Z,36.92
2022-08-04T12:16:59.054Z,36.66
2022-08-04T12:19:57.058Z,36.57
2022-08-04T12:22:38.742Z,36.84
2022-08-04T12:25:22.922Z,36.97
2022-08-04T12:28:02.169Z,37.05
2022-08-04T12:30:59.579Z,36.95
2022-08-04T12:34:04.615Z,36.79
2022-08-04T12:36:43.800Z,36.65
2022-08-04T12:39:20.424Z,36.53
2022-08-04T12:42:04.954Z,36.39
2022-08-04T12:44:41.878Z,36.46
2022-08-04T12:47:27.402Z,36.66
2022-08-04T12:50:05.392Z,36.93
2022-08-04T12:53:31.898Z,36.95
2022-08-04T12:56:08.146Z,36.97
2022-08-04T12:58:46.631Z,36.93
2022-08-04T13:02:08.770Z,36.78
2022-08-04T13:04:21.625Z,36.76
2022-08-04T13:07:02.330Z,36.80
2022-08-04T13:09:38.591Z,37.00
2022-08-04T13:12:16.230Z,37.03
2022-08-04T13:14:54.366Z,36.97
2022-08-04T13:17:49.631Z,36.95
2022-08-04T13:20:27.797Z,37.16
2022-08-04T13:23:14.389Z,37.15
2022-08-04T13:26:44.847Z,37.11
2022-08-04T13:28:47.315Z,36.99
2022-08-04T13:31:24.453Z,36.89
2022-08-04T13:34:08.475Z,36.86
2022-08-04T13:36:56.701Z,36.94
2022-08-04T13:39:32.205Z,36.90
2022-08-04T13:42:11.948Z,36.85
2022-08-04T13:44:49.909Z,36.81
2022-08-04T13:47:29.863Z,36.78
2022-08-04T13:50:27.428Z,36.69
2022-08-04T13:53:04.388Z,36.67
2022-08-04T13:55:38.377Z,36.84
2022-08-04T13:58:20.354Z,36.77
2022-08-04T14:01:01.172Z,37.03
2022-08-04T14:03:54.514Z,36.88
2022-08-04T14:06:31.706Z,36.79
2022-08-04T14:09:15.376Z,36.81
2022-08-04T14:12:09.987Z,37.05
2022-08-04T14:14:48.734Z,36.97
2022-08-04T14:17:30.211Z,36.81
2022-08-04T14:20:06.821Z,36.80
2022-08-04T14:22:40.043Z,36.97
2022-08-04T14:25:16.789Z,36.82
2022-08-04T14:27:54.293Z,36.91
2022-08-04T14:30:30.898Z,36.94
2022-08-04T14:34:01.550Z,36.85
2022-08-04T14:36:04.582Z,36.73
2022-08-04T14:38:51.754Z,36.88
2022-08-04T14:41:29.519Z,36.92
2022-08-04T14:44:07.313Z,36.97
2022-08-04T14:46:52.462Z,37.17
2022-08-04T14:49:26.672Z,37.03
2022-08-04T14:52:03.096Z,36.78
2022-08-04T14:54:36.783Z,36.67
2022-08-04T14:57:10.187Z,36.63
2022-08-04T14:59:59.756Z,36.48
2022-08-04T15:02:36.117Z,36.38
2022-08-04T15:06:01.911Z,36.44
2022-08-04T15:08:04.682Z,36.49
2022-08-04T15:10:39.225Z,36.50
2022-08-04T15:13:14.376Z,36.50
2022-08-04T15:16:06.459Z,36.46
2022-08-04T15:18:40.558Z,36.38
2022-08-04T15:21:15.552Z,36.39
2022-08-04T15:23:50.639Z,36.29
2022-08-04T15:26:30.158Z,36.37
2022-08-04T15:29:16.240Z,36.18
2022-08-04T15:32:05.740Z,36.12
2022-08-04T15:34:49.278Z,36.12
2022-08-04T15:37:29.935Z,36.34
2022-08-04T15:40:14.007Z,36.23
2022-08-04T15:42:50.614Z,36.17
2022-08-04T15:46:02.225Z,36.15
2022-08-04T15:48:28.908Z,36.17
2022-08-04T15:51:14.655Z,36.19
2022-08-04T15:54:28.123Z,36.27
2022-08-04T15:57:07.913Z,36.39
2022-08-04T16:00:01.664Z,36.25
2022-08-04T16:02:44.211Z,36.15
2022-08-04T16:05:39.174Z,36.04
2022-08-04T16:08:17.512Z,35.95
2022-08-04T16:10:51.818Z,35.87
2022-08-04T16:13:26.236Z,35.90
2022-08-04T16:16:03.653Z,35.83
2022-08-04T16:18:43.796Z,35.80
2022-08-04T16:21:24.653Z,35.73
2022-08-04T16:24:19.111Z,35.66
2022-08-04T16:26:56.158Z,35.62
2022-08-04T16:29:35.162Z,35.58
2022-08-04T16:32:17.315Z,35.56
2022-08-04T16:34:59.659Z,35.45
2022-08-04T16:37:35.573Z,35.40
2022-08-04T16:40:36.447Z,35.44
2022-08-04T16:43:13.632Z,35.38
2022-08-04T16:45:52.691Z,35.32
2022-08-04T16:48:28.293Z,35.30
2022-08-04T16:51:06.424Z,35.37
2022-08-04T16:54:02.763Z,35.21
2022-08-04T16:56:36.395Z,35.13
2022-08-04T16:59:10.747Z,35.07
2022-08-04T17:01:52.092Z,34.99
2022-08-04T17:04:30.839Z,34.90
2022-08-04T17:07:06.669Z,34.83
2022-08-04T17:09:51.064Z,34.79
2022-08-04T17:12:29.941Z,34.84
2022-08-04T17:15:03.280Z,34.73
2022-08-04T17:18:05.789Z,34.63
2022-08-04T17:21:01.459Z,34.56
2022-08-04T17:24:15.488Z,34.47
2022-08-04T17:26:40.036Z,34.35
2022-08-04T17:29:18.209Z,34.24
2022-08-04T17:31:53.796Z,34.19
2022-08-04T17:34:28.518Z,34.12
2022-08-04T17:37:38.070Z,33.99
2022-08-04T17:40:09.992Z,33.88
2022-08-04T17:42:45.261Z,33.82
2022-08-04T17:48:24.527Z,33.56
2022-08-04T17:51:17.171Z,33.51
2022-08-04T17:54:02.716Z,33.48
2022-08-04T17:56:51.393Z,33.38
2022-08-04T17:59:52.911Z,33.26
2022-08-04T18:02:32.447Z,33.13
2022-08-04T18:05:11.684Z,33.08
2022-08-04T18:08:38.951Z,32.93
2022-08-04T18:10:52.139Z,32.79
2022-08-04T18:13:29.656Z,32.68
2022-08-04T18:16:05.530Z,32.57
2022-08-04T18:18:38.658Z,32.47
2022-08-04T18:21:11.791Z,32.35
2022-08-04T18:23:50.949Z,32.20
2022-08-04T18:26:24.369Z,32.05
2022-08-04T18:28:57.532Z,31.87
2022-08-04T18:31:35.826Z,31.75
2022-08-04T18:34:14.290Z,31.61
2022-08-04T18:36:59.232Z,31.50
2022-08-04T18:40:09.588Z,31.41
2022-08-04T18:42:27.939Z,31.28
2022-08-04T18:45:12.903Z,31.15
2022-08-04T18:47:54.377Z,31.06
2022-08-04T18:51:09.296Z,30.90
2022-08-04T18:53:26.137Z,30.85
2022-08-04T18:56:20.055Z,30.82
2022-08-04T18:59:10.588Z,30.67
2022-08-04T19:02:13.400Z,30.50
2022-08-04T19:04:37.214Z,30.47
2022-08-04T19:08:01.458Z,30.41
2022-08-04T19:10:07.626Z,30.23
2022-08-04T19:13:00.868Z,30.11
2022-08-04T19:15:34.952Z,30.00
2022-08-04T19:18:10.490Z,29.88
2022-08-04T19:20:43.719Z,29.75
2022-08-04T19:24:32.128Z,29.65
2022-08-04T19:26:27.929Z,29.50
2022-08-04T19:29:03.666Z,29.40
2022-08-04T19:31:41.981Z,29.31
2022-08-04T19:34:15.208Z,29.23
2022-08-04T19:36:48.348Z,29.18
2022-08-04T19:39:22.653Z,29.09
2022-08-04T19:42:04.606Z,28.96
2022-08-04T19:48:16.418Z,28.81
2022-08-04T19:50:28.568Z,28.68
2022-08-04T19:53:01.800Z,28.65
2022-08-04T19:55:38.380Z,28.57
2022-08-04T19:58:11.811Z,28.45
2022-08-04T20:00:51.471Z,28.36
2022-08-04T20:04:09.175Z,28.28
2022-08-04T20:06:18.345Z,28.20
2022-08-04T20:08:52.405Z,28.04
2022-08-04T20:11:27.340Z,28.00
2022-08-04T20:14:00.498Z,27.95
2022-08-04T20:16:36.894Z,27.89
2022-08-04T20:19:13.810Z,27.82
2022-08-04T20:21:55.219Z,27.77
2022-08-04T20:24:39.384Z,27.61
2022-08-04T20:27:17.708Z,27.54
2022-08-04T20:29:55.653Z,27.53
2022-08-04T20:32:30.282Z,27.48
2022-08-04T20:35:03.494Z,27.26
2022-08-04T20:37:55.094Z,27.25
2022-08-04T20:40:33.335Z,27.18
2022-08-04T20:43:06.443Z,27.11
2022-08-04T20:45:56.562Z,27.12
2022-08-04T20:48:33.811Z,27.04
2022-08-04T20:51:07.642Z,26.95
2022-08-04T20:53:53.028Z,26.91
2022-08-04T20:56:31.013Z,26.85
2022-08-04T21:01:58.353Z,26.70
2022-08-04T21:04:35.655Z,26.71
2022-08-04T21:07:10.880Z,26.69
2022-08-04T21:09:51.194Z,26.60
2022-08-04T21:12:28.586Z,26.51
2022-08-04T21:15:13.904Z,26.47
2022-08-04T21:17:59.454Z,26.41
2022-08-04T21:20:42.710Z,26.34
2022-08-04T21:23:16.735Z,26.27
2022-08-04T21:25:58.074Z,26.20
2022-08-04T21:28:31.792Z,26.12
2022-08-04T21:31:11.070Z,26.04
2022-08-04T21:33:54.799Z,26.00
2022-08-04T21:36:29.412Z,25.93
2022-08-04T21:39:04.309Z,25.88
2022-08-04T21:42:19.718Z,25.82
2022-08-04T21:44:37.251Z,25.76
2022-08-04T21:50:04.643Z,25.71
2022-08-04T21:52:39.175Z,25.64
2022-08-04T21:55:12.821Z,25.56
2022-08-04T21:57:45.944Z,25.52
2022-08-04T22:00:22.936Z,25.46
2022-08-04T22:02:57.947Z,25.44
2022-08-04T22:05:32.827Z,25.34
2022-08-04T22:08:07.577Z,25.27
2022-08-04T22:10:53.486Z,25.22
2022-08-04T22:13:52.651Z,25.17
2022-08-04T22:16:19.639Z,25.23
2022-08-04T22:18:56.557Z,25.15
2022-08-04T22:24:30.017Z,25.02
2022-08-04T22:27:03.185Z,25.00
2022-08-04T22:29:44.888Z,24.95
2022-08-04T22:32:18.194Z,24.92
2022-08-04T22:34:53.959Z,24.87
2022-08-04T22:37:36.229Z,24.86
2022-08-04T22:40:19.469Z,24.84
2022-08-04T22:42:52.614Z,24.80
2022-08-04T22:45:28.802Z,24.68
2022-08-04T22:48:17.282Z,24.68
2022-08-04T22:50:51.303Z,24.63
2022-08-04T22:53:24.439Z,24.60
2022-08-04T22:56:09.613Z,24.54
2022-08-04T22:58:51.066Z,24.50
2022-08-04T23:01:24.749Z,24.45
2022-08-04T23:04:06.419Z,24.33
2022-08-04T23:06:41.504Z,24.27
2022-08-04T23:09:16.128Z,24.21
2022-08-04T23:12:08.595Z,24.15
2022-08-04T23:14:46.146Z,24.09
2022-08-04T23:17:20.249Z,24.04
2022-08-04T23:19:57.310Z,24.01
2022-08-04T23:22:41.003Z,23.96
2022-08-04T23:25:17.060Z,23.91
2022-08-04T23:27:52.199Z,23.87
2022-08-04T23:30:29.921Z,23.83
2022-08-04T23:33:05.160Z,23.86
2022-08-04T23:35:38.480Z,23.85
2022-08-04T23:38:31.714Z,23.77
2022-08-04T23:41:08.642Z,23.74
2022-08-04T23:43:55.246Z,23.70
2022-08-04T23:46:28.814Z,23.68
2022-08-04T23:49:01.974Z,23.65
2022-08-04T23:51:35.218Z,23.66
2022-08-04T23:54:09.095Z,23.61
2022-08-04T23:56:42.250Z,23.51
2022-08-04T23:59:51.940Z,23.48
